sensor_id;sensor_type;location;lat;lon;timestamp;P1;durP1;ratioP1;P2;durP2;ratioP2
35330;SDS011;21441;52.190;20.910;2022-09-17T00:01:15;5.22;;;3.30;;
35330;SDS011;21441;52.190;20.910;2022-09-17T00:03:44;5.88;;;3.28;;
35330;SDS011;21441;52.190;20.910;2022-09-17T00:06:14;3.20;;;2.70;;
35330;SDS011;21441;52.190;20.910;2022-09-17T00:08:42;3.65;;;3.03;;
35330;SDS011;21441;52.190;20.910;2022-09-17T00:11:09;4.50;;;3.20;;
35330;SDS011;21441;52.190;20.910;2022-09-17T00:13:38;4.05;;;2.95;;
35330;SDS011;21441;52.190;20.910;2022-09-17T00:16:05;3.75;;;2.47;;
35330;SDS011;21441;52.190;20.910;2022-09-17T00:18:32;5.35;;;3.00;;
35330;SDS011;21441;52.190;20.910;2022-09-17T00:21:02;4.05;;;2.70;;
35330;SDS011;21441;52.190;20.910;2022-09-17T00:23:29;4.28;;;2.72;;
35330;SDS011;21441;52.190;20.910;2022-09-17T00:25:56;3.80;;;2.95;;
35330;SDS011;21441;52.190;20.910;2022-09-17T00:28:23;3.70;;;2.67;;
35330;SDS011;21441;52.190;20.910;2022-09-17T00:30:50;5.18;;;2.60;;
35330;SDS011;21441;52.190;20.910;2022-09-17T00:33:17;4.22;;;3.10;;
35330;SDS011;21441;52.190;20.910;2022-09-17T00:35:45;3.17;;;2.50;;
35330;SDS011;21441;52.190;20.910;2022-09-17T00:38:25;9.05;;;2.95;;
35330;SDS011;21441;52.190;20.910;2022-09-17T00:40:52;3.22;;;2.65;;
35330;SDS011;21441;52.190;20.910;2022-09-17T00:43:32;6.78;;;2.53;;
35330;SDS011;21441;52.190;20.910;2022-09-17T00:46:01;3.75;;;2.55;;
35330;SDS011;21441;52.190;20.910;2022-09-17T00:48:30;2.63;;;2.28;;
35330;SDS011;21441;52.190;20.910;2022-09-17T00:50:57;4.18;;;2.50;;
35330;SDS011;21441;52.190;20.910;2022-09-17T00:53:28;3.08;;;2.47;;
35330;SDS011;21441;52.190;20.910;2022-09-17T00:55:57;4.13;;;2.80;;
35330;SDS011;21441;52.190;20.910;2022-09-17T00:58:29;5.85;;;3.55;;
35330;SDS011;21441;52.190;20.910;2022-09-17T01:00:58;3.75;;;2.78;;
35330;SDS011;21441;52.190;20.910;2022-09-17T01:03:25;4.72;;;2.47;;
35330;SDS011;21441;52.190;20.910;2022-09-17T01:05:56;5.50;;;2.58;;
35330;SDS011;21441;52.190;20.910;2022-09-17T01:08:36;5.05;;;2.35;;
35330;SDS011;21441;52.190;20.910;2022-09-17T01:11:20;3.83;;;2.58;;
35330;SDS011;21441;52.190;20.910;2022-09-17T01:14:02;3.55;;;2.42;;
35330;SDS011;21441;52.190;20.910;2022-09-17T01:16:45;3.35;;;2.55;;
35330;SDS011;21441;52.190;20.910;2022-09-17T01:19:31;2.70;;;2.22;;
35330;SDS011;21441;52.190;20.910;2022-09-17T01:22:14;5.30;;;2.60;;
35330;SDS011;21441;52.190;20.910;2022-09-17T01:24:49;4.13;;;2.50;;
35330;SDS011;21441;52.190;20.910;2022-09-17T01:27:42;4.68;;;2.63;;
35330;SDS011;21441;52.190;20.910;2022-09-17T01:30:37;4.13;;;3.20;;
35330;SDS011;21441;52.190;20.910;2022-09-17T01:33:23;2.30;;;2.00;;
35330;SDS011;21441;52.190;20.910;2022-09-17T01:35:58;3.63;;;2.55;;
35330;SDS011;21441;52.190;20.910;2022-09-17T01:38:37;3.30;;;2.65;;
35330;SDS011;21441;52.190;20.910;2022-09-17T01:41:10;4.95;;;2.35;;
35330;SDS011;21441;52.190;20.910;2022-09-17T01:43:48;4.20;;;2.70;;
35330;SDS011;21441;52.190;20.910;2022-09-17T01:46:20;2.72;;;2.20;;
35330;SDS011;21441;52.190;20.910;2022-09-17T01:48:51;5.75;;;3.47;;
35330;SDS011;21441;52.190;20.910;2022-09-17T01:51:25;4.55;;;2.67;;
35330;SDS011;21441;52.190;20.910;2022-09-17T01:53:55;3.58;;;2.35;;
35330;SDS011;21441;52.190;20.910;2022-09-17T01:56:27;3.72;;;2.58;;
35330;SDS011;21441;52.190;20.910;2022-09-17T01:59:00;4.03;;;3.10;;
35330;SDS011;21441;52.190;20.910;2022-09-17T02:01:34;5.07;;;2.92;;
35330;SDS011;21441;52.190;20.910;2022-09-17T02:04:05;3.70;;;2.60;;
35330;SDS011;21441;52.190;20.910;2022-09-17T02:06:36;4.93;;;3.17;;
35330;SDS011;21441;52.190;20.910;2022-09-17T02:09:07;6.95;;;2.95;;
35330;SDS011;21441;52.190;20.910;2022-09-17T02:11:39;5.18;;;2.75;;
35330;SDS011;21441;52.190;20.910;2022-09-17T02:14:11;4.18;;;2.28;;
35330;SDS011;21441;52.190;20.910;2022-09-17T02:16:43;4.30;;;2.60;;
35330;SDS011;21441;52.190;20.910;2022-09-17T02:19:14;3.15;;;2.58;;
35330;SDS011;21441;52.190;20.910;2022-09-17T02:21:48;3.88;;;2.33;;
35330;SDS011;21441;52.190;20.910;2022-09-17T02:24:23;5.50;;;2.65;;
35330;SDS011;21441;52.190;20.910;2022-09-17T02:26:53;5.55;;;2.63;;
35330;SDS011;21441;52.190;20.910;2022-09-17T02:29:28;4.78;;;2.75;;
35330;SDS011;21441;52.190;20.910;2022-09-17T02:31:59;4.30;;;2.67;;
35330;SDS011;21441;52.190;20.910;2022-09-17T02:34:27;4.72;;;2.53;;
35330;SDS011;21441;52.190;20.910;2022-09-17T02:36:55;3.55;;;2.67;;
35330;SDS011;21441;52.190;20.910;2022-09-17T02:39:24;3.10;;;2.38;;
35330;SDS011;21441;52.190;20.910;2022-09-17T02:41:52;4.25;;;2.55;;
35330;SDS011;21441;52.190;20.910;2022-09-17T02:44:30;5.25;;;2.47;;
35330;SDS011;21441;52.190;20.910;2022-09-17T02:47:31;4.70;;;2.70;;
35330;SDS011;21441;52.190;20.910;2022-09-17T02:50:11;5.03;;;2.90;;
35330;SDS011;21441;52.190;20.910;2022-09-17T02:52:47;3.42;;;2.50;;
35330;SDS011;21441;52.190;20.910;2022-09-17T02:55:25;4.70;;;3.25;;
35330;SDS011;21441;52.190;20.910;2022-09-17T02:57:59;4.53;;;2.30;;
35330;SDS011;21441;52.190;20.910;2022-09-17T03:00:34;6.78;;;2.47;;
35330;SDS011;21441;52.190;20.910;2022-09-17T03:03:04;3.55;;;2.30;;
35330;SDS011;21441;52.190;20.910;2022-09-17T03:05:36;3.72;;;2.33;;
35330;SDS011;21441;52.190;20.910;2022-09-17T03:08:06;4.72;;;2.67;;
35330;SDS011;21441;52.190;20.910;2022-09-17T03:10:37;4.18;;;2.50;;
35330;SDS011;21441;52.190;20.910;2022-09-17T03:13:04;3.30;;;2.40;;
35330;SDS011;21441;52.190;20.910;2022-09-17T03:15:31;3.97;;;2.63;;
35330;SDS011;21441;52.190;20.910;2022-09-17T03:17:58;4.20;;;2.80;;
35330;SDS011;21441;52.190;20.910;2022-09-17T03:20:26;4.20;;;2.95;;
35330;SDS011;21441;52.190;20.910;2022-09-17T03:22:53;7.50;;;3.65;;
35330;SDS011;21441;52.190;20.910;2022-09-17T03:25:20;4.20;;;2.60;;
35330;SDS011;21441;52.190;20.910;2022-09-17T03:27:47;3.95;;;2.65;;
35330;SDS011;21441;52.190;20.910;2022-09-17T03:30:14;4.90;;;2.80;;
35330;SDS011;21441;52.190;20.910;2022-09-17T03:32:41;3.97;;;2.85;;
35330;SDS011;21441;52.190;20.910;2022-09-17T03:35:08;5.78;;;2.72;;
35330;SDS011;21441;52.190;20.910;2022-09-17T03:37:36;5.43;;;2.95;;
35330;SDS011;21441;52.190;20.910;2022-09-17T03:40:03;5.05;;;3.05;;
35330;SDS011;21441;52.190;20.910;2022-09-17T03:42:31;4.20;;;2.70;;
35330;SDS011;21441;52.190;20.910;2022-09-17T03:44:58;3.22;;;2.70;;
35330;SDS011;21441;52.190;20.910;2022-09-17T03:47:25;5.63;;;2.80;;
35330;SDS011;21441;52.190;20.910;2022-09-17T03:49:53;4.38;;;3.10;;
35330;SDS011;21441;52.190;20.910;2022-09-17T03:52:20;3.78;;;2.75;;
35330;SDS011;21441;52.190;20.910;2022-09-17T03:54:48;3.40;;;3.10;;
35330;SDS011;21441;52.190;20.910;2022-09-17T03:57:15;4.32;;;3.35;;
35330;SDS011;21441;52.190;20.910;2022-09-17T03:59:42;4.00;;;3.28;;
35330;SDS011;21441;52.190;20.910;2022-09-17T04:02:09;5.60;;;3.20;;
35330;SDS011;21441;52.190;20.910;2022-09-17T04:04:35;5.32;;;3.78;;
35330;SDS011;21441;52.190;20.910;2022-09-17T04:07:03;4.18;;;2.95;;
35330;SDS011;21441;52.190;20.910;2022-09-17T04:09:30;5.38;;;3.17;;
35330;SDS011;21441;52.190;20.910;2022-09-17T04:11:58;6.63;;;3.05;;
35330;SDS011;21441;52.190;20.910;2022-09-17T04:14:25;5.70;;;3.42;;
35330;SDS011;21441;52.190;20.910;2022-09-17T04:16:52;6.10;;;4.15;;
35330;SDS011;21441;52.190;20.910;2022-09-17T04:19:19;7.72;;;4.28;;
35330;SDS011;21441;52.190;20.910;2022-09-17T04:21:46;5.30;;;3.53;;
35330;SDS011;21441;52.190;20.910;2022-09-17T04:24:13;5.90;;;3.30;;
35330;SDS011;21441;52.190;20.910;2022-09-17T04:26:40;4.63;;;3.38;;
35330;SDS011;21441;52.190;20.910;2022-09-17T04:29:08;6.00;;;3.35;;
35330;SDS011;21441;52.190;20.910;2022-09-17T04:31:35;5.85;;;3.53;;
35330;SDS011;21441;52.190;20.910;2022-09-17T04:34:02;4.05;;;3.35;;
35330;SDS011;21441;52.190;20.910;2022-09-17T04:36:29;3.95;;;2.85;;
35330;SDS011;21441;52.190;20.910;2022-09-17T04:38:56;5.18;;;3.08;;
35330;SDS011;21441;52.190;20.910;2022-09-17T04:41:23;5.82;;;3.47;;
35330;SDS011;21441;52.190;20.910;2022-09-17T04:43:50;5.35;;;3.10;;
35330;SDS011;21441;52.190;20.910;2022-09-17T04:46:18;5.47;;;3.30;;
35330;SDS011;21441;52.190;20.910;2022-09-17T04:48:45;6.55;;;3.58;;
35330;SDS011;21441;52.190;20.910;2022-09-17T04:51:12;8.15;;;3.35;;
35330;SDS011;21441;52.190;20.910;2022-09-17T04:53:39;7.50;;;3.25;;
35330;SDS011;21441;52.190;20.910;2022-09-17T04:56:05;5.10;;;3.25;;
35330;SDS011;21441;52.190;20.910;2022-09-17T04:58:32;5.78;;;3.03;;
35330;SDS011;21441;52.190;20.910;2022-09-17T05:00:59;5.07;;;2.95;;
35330;SDS011;21441;52.190;20.910;2022-09-17T05:03:27;6.00;;;3.13;;
35330;SDS011;21441;52.190;20.910;2022-09-17T05:05:54;4.60;;;2.95;;
35330;SDS011;21441;52.190;20.910;2022-09-17T05:08:21;4.20;;;3.30;;
35330;SDS011;21441;52.190;20.910;2022-09-17T05:10:49;7.53;;;3.40;;
35330;SDS011;21441;52.190;20.910;2022-09-17T05:13:17;7.55;;;3.95;;
35330;SDS011;21441;52.190;20.910;2022-09-17T05:15:44;5.90;;;3.05;;
35330;SDS011;21441;52.190;20.910;2022-09-17T05:18:10;4.35;;;2.83;;
35330;SDS011;21441;52.190;20.910;2022-09-17T05:20:39;5.63;;;2.58;;
35330;SDS011;21441;52.190;20.910;2022-09-17T05:23:06;4.53;;;2.97;;
35330;SDS011;21441;52.190;20.910;2022-09-17T05:25:35;5.68;;;2.95;;
35330;SDS011;21441;52.190;20.910;2022-09-17T05:28:02;5.30;;;3.13;;
35330;SDS011;21441;52.190;20.910;2022-09-17T05:30:29;3.97;;;3.25;;
35330;SDS011;21441;52.190;20.910;2022-09-17T05:32:59;4.80;;;2.70;;
35330;SDS011;21441;52.190;20.910;2022-09-17T05:35:27;5.05;;;3.10;;
35330;SDS011;21441;52.190;20.910;2022-09-17T05:37:59;4.75;;;2.75;;
35330;SDS011;21441;52.190;20.910;2022-09-17T05:40:27;7.47;;;3.00;;
35330;SDS011;21441;52.190;20.910;2022-09-17T05:42:56;3.65;;;2.50;;
35330;SDS011;21441;52.190;20.910;2022-09-17T05:45:25;4.03;;;2.30;;
35330;SDS011;21441;52.190;20.910;2022-09-17T05:47:54;4.60;;;2.40;;
35330;SDS011;21441;52.190;20.910;2022-09-17T05:50:22;2.67;;;2.13;;
35330;SDS011;21441;52.190;20.910;2022-09-17T05:52:49;4.60;;;2.10;;
35330;SDS011;21441;52.190;20.910;2022-09-17T05:55:18;3.45;;;2.05;;
35330;SDS011;21441;52.190;20.910;2022-09-17T05:57:46;3.35;;;2.40;;
35330;SDS011;21441;52.190;20.910;2022-09-17T06:00:14;2.03;;;1.85;;
35330;SDS011;21441;52.190;20.910;2022-09-17T06:02:41;3.03;;;2.28;;
35330;SDS011;21441;52.190;20.910;2022-09-17T06:05:08;3.88;;;1.85;;
35330;SDS011;21441;52.190;20.910;2022-09-17T06:07:35;3.28;;;1.77;;
35330;SDS011;21441;52.190;20.910;2022-09-17T06:10:04;2.22;;;1.70;;
35330;SDS011;21441;52.190;20.910;2022-09-17T06:12:34;3.47;;;1.80;;
35330;SDS011;21441;52.190;20.910;2022-09-17T06:15:01;3.83;;;1.85;;
35330;SDS011;21441;52.190;20.910;2022-09-17T06:17:28;4.80;;;1.63;;
35330;SDS011;21441;52.190;20.910;2022-09-17T06:19:58;2.83;;;1.58;;
35330;SDS011;21441;52.190;20.910;2022-09-17T06:22:25;4.93;;;2.10;;
35330;SDS011;21441;52.190;20.910;2022-09-17T06:24:52;3.00;;;1.40;;
35330;SDS011;21441;52.190;20.910;2022-09-17T06:27:19;5.07;;;1.27;;
35330;SDS011;21441;52.190;20.910;2022-09-17T06:29:47;4.22;;;1.50;;
35330;SDS011;21441;52.190;20.910;2022-09-17T06:32:17;3.53;;;2.33;;
35330;SDS011;21441;52.190;20.910;2022-09-17T06:34:44;2.88;;;1.50;;
35330;SDS011;21441;52.190;20.910;2022-09-17T06:37:11;6.97;;;1.77;;
35330;SDS011;21441;52.190;20.910;2022-09-17T06:39:38;4.68;;;1.85;;
35330;SDS011;21441;52.190;20.910;2022-09-17T06:42:06;5.72;;;1.23;;
35330;SDS011;21441;52.190;20.910;2022-09-17T06:44:33;3.47;;;1.55;;
35330;SDS011;21441;52.190;20.910;2022-09-17T06:47:01;4.07;;;1.70;;
35330;SDS011;21441;52.190;20.910;2022-09-17T06:49:28;3.63;;;1.80;;
35330;SDS011;21441;52.190;20.910;2022-09-17T06:51:56;3.65;;;1.98;;
35330;SDS011;21441;52.190;20.910;2022-09-17T06:54:23;2.58;;;1.50;;
35330;SDS011;21441;52.190;20.910;2022-09-17T06:56:50;1.95;;;1.75;;
35330;SDS011;21441;52.190;20.910;2022-09-17T06:59:17;6.55;;;3.78;;
35330;SDS011;21441;52.190;20.910;2022-09-17T07:01:44;3.03;;;1.75;;
35330;SDS011;21441;52.190;20.910;2022-09-17T07:04:13;3.88;;;1.63;;
35330;SDS011;21441;52.190;20.910;2022-09-17T07:06:42;3.30;;;1.83;;
35330;SDS011;21441;52.190;20.910;2022-09-17T07:09:09;3.72;;;2.10;;
35330;SDS011;21441;52.190;20.910;2022-09-17T07:11:36;3.20;;;1.58;;
35330;SDS011;21441;52.190;20.910;2022-09-17T07:14:03;5.00;;;2.15;;
35330;SDS011;21441;52.190;20.910;2022-09-17T07:16:31;4.78;;;1.83;;
35330;SDS011;21441;52.190;20.910;2022-09-17T07:19:00;4.45;;;2.83;;
35330;SDS011;21441;52.190;20.910;2022-09-17T07:21:29;4.47;;;2.28;;
35330;SDS011;21441;52.190;20.910;2022-09-17T07:23:56;4.70;;;2.25;;
35330;SDS011;21441;52.190;20.910;2022-09-17T07:26:23;4.07;;;1.90;;
35330;SDS011;21441;52.190;20.910;2022-09-17T07:28:50;3.25;;;2.08;;
35330;SDS011;21441;52.190;20.910;2022-09-17T07:31:17;3.00;;;2.13;;
35330;SDS011;21441;52.190;20.910;2022-09-17T07:33:44;4.63;;;2.20;;
35330;SDS011;21441;52.190;20.910;2022-09-17T07:36:12;4.85;;;2.65;;
35330;SDS011;21441;52.190;20.910;2022-09-17T07:38:43;3.30;;;2.30;;
35330;SDS011;21441;52.190;20.910;2022-09-17T07:41:11;5.18;;;2.38;;
35330;SDS011;21441;52.190;20.910;2022-09-17T07:43:39;3.30;;;2.20;;
35330;SDS011;21441;52.190;20.910;2022-09-17T07:46:07;4.20;;;2.45;;
35330;SDS011;21441;52.190;20.910;2022-09-17T07:48:38;3.15;;;2.03;;
35330;SDS011;21441;52.190;20.910;2022-09-17T07:51:05;3.53;;;2.38;;
35330;SDS011;21441;52.190;20.910;2022-09-17T07:53:32;2.75;;;1.73;;
35330;SDS011;21441;52.190;20.910;2022-09-17T07:56:01;3.67;;;2.63;;
35330;SDS011;21441;52.190;20.910;2022-09-17T07:58:28;4.40;;;2.28;;
35330;SDS011;21441;52.190;20.910;2022-09-17T08:01:00;2.33;;;2.13;;
35330;SDS011;21441;52.190;20.910;2022-09-17T08:03:28;3.75;;;2.10;;
35330;SDS011;21441;52.190;20.910;2022-09-17T08:05:59;2.45;;;2.20;;
35330;SDS011;21441;52.190;20.910;2022-09-17T08:08:28;3.33;;;2.55;;
35330;SDS011;21441;52.190;20.910;2022-09-17T08:10:58;2.78;;;1.80;;
35330;SDS011;21441;52.190;20.910;2022-09-17T08:13:28;3.38;;;1.92;;
35330;SDS011;21441;52.190;20.910;2022-09-17T08:15:59;3.13;;;2.20;;
35330;SDS011;21441;52.190;20.910;2022-09-17T08:18:27;4.65;;;2.20;;
35330;SDS011;21441;52.190;20.910;2022-09-17T10:45:58;1.92;;;1.73;;
35330;SDS011;21441;52.190;20.910;2022-09-17T10:50:56;2.60;;;2.40;;
35330;SDS011;21441;52.190;20.910;2022-09-17T10:53:24;5.60;;;2.25;;
35330;SDS011;21441;52.190;20.910;2022-09-17T10:55:54;3.17;;;2.28;;
35330;SDS011;21441;52.190;20.910;2022-09-17T10:58:34;2.83;;;2.22;;
35330;SDS011;21441;52.190;20.910;2022-09-17T11:01:15;2.95;;;2.40;;
35330;SDS011;21441;52.190;20.910;2022-09-17T11:04:12;2.80;;;2.58;;
35330;SDS011;21441;52.190;20.910;2022-09-17T11:07:03;3.70;;;2.70;;
35330;SDS011;21441;52.190;20.910;2022-09-17T11:09:42;2.30;;;2.10;;
35330;SDS011;21441;52.190;20.910;2022-09-17T11:12:20;3.15;;;2.30;;
35330;SDS011;21441;52.190;20.910;2022-09-17T11:14:57;4.15;;;2.53;;
35330;SDS011;21441;52.190;20.910;2022-09-17T11:20:40;2.90;;;2.22;;
35330;SDS011;21441;52.190;20.910;2022-09-17T11:23:22;2.47;;;2.25;;
35330;SDS011;21441;52.190;20.910;2022-09-17T11:25:58;6.85;;;2.80;;
35330;SDS011;21441;52.190;20.910;2022-09-17T11:28:33;3.92;;;2.60;;
35330;SDS011;21441;52.190;20.910;2022-09-17T11:31:18;2.15;;;1.95;;
35330;SDS011;21441;52.190;20.910;2022-09-17T11:36:32;2.72;;;2.22;;
35330;SDS011;21441;52.190;20.910;2022-09-17T11:39:09;3.30;;;1.98;;
35330;SDS011;21441;52.190;20.910;2022-09-17T11:41:42;2.08;;;1.98;;
35330;SDS011;21441;52.190;20.910;2022-09-17T11:44:14;2.22;;;2.05;;
35330;SDS011;21441;52.190;20.910;2022-09-17T11:46:48;2.28;;;1.80;;
35330;SDS011;21441;52.190;20.910;2022-09-17T11:49:22;3.25;;;1.80;;
35330;SDS011;21441;52.190;20.910;2022-09-17T11:51:54;2.65;;;2.05;;
35330;SDS011;21441;52.190;20.910;2022-09-17T11:54:24;1.88;;;1.77;;
35330;SDS011;21441;52.190;20.910;2022-09-17T11:56:56;1.83;;;1.27;;
35330;SDS011;21441;52.190;20.910;2022-09-17T11:59:31;2.50;;;1.40;;
35330;SDS011;21441;52.190;20.910;2022-09-17T12:02:03;3.33;;;1.55;;
35330;SDS011;21441;52.190;20.910;2022-09-17T12:04:41;1.77;;;1.33;;
35330;SDS011;21441;52.190;20.910;2022-09-17T12:07:14;1.00;;;0.90;;
35330;SDS011;21441;52.190;20.910;2022-09-17T12:09:52;1.38;;;1.27;;
35330;SDS011;21441;52.190;20.910;2022-09-17T12:12:23;1.67;;;1.30;;
35330;SDS011;21441;52.190;20.910;2022-09-17T12:14:54;1.45;;;1.20;;
35330;SDS011;21441;52.190;20.910;2022-09-17T12:19:55;3.15;;;1.63;;
35330;SDS011;21441;52.190;20.910;2022-09-17T12:22:25;2.90;;;2.55;;
35330;SDS011;21441;52.190;20.910;2022-09-17T12:24:57;2.13;;;1.92;;
35330;SDS011;21441;52.190;20.910;2022-09-17T12:27:29;3.67;;;1.90;;
35330;SDS011;21441;52.190;20.910;2022-09-17T12:30:04;2.20;;;2.00;;
35330;SDS011;21441;52.190;20.910;2022-09-17T12:32:40;2.67;;;2.47;;
35330;SDS011;21441;52.190;20.910;2022-09-17T12:35:20;2.35;;;2.10;;
35330;SDS011;21441;52.190;20.910;2022-09-17T12:38:01;2.92;;;2.30;;
35330;SDS011;21441;52.190;20.910;2022-09-17T12:40:36;3.33;;;2.30;;
35330;SDS011;21441;52.190;20.910;2022-09-17T12:43:15;2.22;;;2.03;;
35330;SDS011;21441;52.190;20.910;2022-09-17T12:45:58;2.67;;;2.25;;
35330;SDS011;21441;52.190;20.910;2022-09-17T12:48:40;2.10;;;1.90;;
35330;SDS011;21441;52.190;20.910;2022-09-17T12:54:18;3.22;;;2.00;;
35330;SDS011;21441;52.190;20.910;2022-09-17T12:57:00;3.03;;;2.15;;
35330;SDS011;21441;52.190;20.910;2022-09-17T12:59:38;2.83;;;2.10;;
35330;SDS011;21441;52.190;20.910;2022-09-17T13:02:14;2.33;;;2.00;;
35330;SDS011;21441;52.190;20.910;2022-09-17T13:04:59;3.13;;;2.45;;
35330;SDS011;21441;52.190;20.910;2022-09-17T13:07:51;2.00;;;1.80;;
35330;SDS011;21441;52.190;20.910;2022-09-17T13:10:48;4.05;;;2.03;;
35330;SDS011;21441;52.190;20.910;2022-09-17T13:13:28;2.60;;;1.98;;
35330;SDS011;21441;52.190;20.910;2022-09-17T13:16:05;2.17;;;1.98;;
35330;SDS011;21441;52.190;20.910;2022-09-17T13:18:38;1.88;;;1.77;;
35330;SDS011;21441;52.190;20.910;2022-09-17T13:21:14;1.98;;;1.77;;
35330;SDS011;21441;52.190;20.910;2022-09-17T13:23:47;1.52;;;1.38;;
35330;SDS011;21441;52.190;20.910;2022-09-17T13:26:17;1.70;;;1.50;;
35330;SDS011;21441;52.190;20.910;2022-09-17T13:28:47;2.33;;;1.60;;
35330;SDS011;21441;52.190;20.910;2022-09-17T13:31:18;2.50;;;1.65;;
35330;SDS011;21441;52.190;20.910;2022-09-17T13:33:47;2.35;;;2.13;;
35330;SDS011;21441;52.190;20.910;2022-09-17T13:36:34;1.67;;;1.58;;
35330;SDS011;21441;52.190;20.910;2022-09-17T13:39:04;2.45;;;1.80;;
35330;SDS011;21441;52.190;20.910;2022-09-17T13:41:34;2.10;;;1.55;;
35330;SDS011;21441;52.190;20.910;2022-09-17T13:44:04;1.73;;;1.33;;
35330;SDS011;21441;52.190;20.910;2022-09-17T13:46:32;6.43;;;2.50;;
35330;SDS011;21441;52.190;20.910;2022-09-17T13:48:59;2.85;;;2.10;;
35330;SDS011;21441;52.190;20.910;2022-09-17T13:51:45;2.50;;;2.30;;
35330;SDS011;21441;52.190;20.910;2022-09-17T13:54:15;3.67;;;2.47;;
35330;SDS011;21441;52.190;20.910;2022-09-17T13:56:47;3.83;;;2.45;;
35330;SDS011;21441;52.190;20.910;2022-09-17T13:59:17;5.03;;;2.80;;
35330;SDS011;21441;52.190;20.910;2022-09-17T14:01:56;4.32;;;3.10;;
35330;SDS011;21441;52.190;20.910;2022-09-17T14:04:30;3.47;;;2.78;;
35330;SDS011;21441;52.190;20.910;2022-09-17T14:10:02;3.42;;;2.45;;
35330;SDS011;21441;52.190;20.910;2022-09-17T14:15:55;4.43;;;2.83;;
35330;SDS011;21441;52.190;20.910;2022-09-17T14:18:34;3.38;;;3.00;;
35330;SDS011;21441;52.190;20.910;2022-09-17T14:21:04;2.88;;;2.60;;
35330;SDS011;21441;52.190;20.910;2022-09-17T14:23:41;2.72;;;2.53;;
35330;SDS011;21441;52.190;20.910;2022-09-17T14:26:13;4.93;;;3.13;;
35330;SDS011;21441;52.190;20.910;2022-09-17T14:28:50;3.35;;;2.90;;
35330;SDS011;21441;52.190;20.910;2022-09-17T14:31:26;2.63;;;2.42;;
35330;SDS011;21441;52.190;20.910;2022-09-17T14:34:00;4.38;;;2.80;;
35330;SDS011;21441;52.190;20.910;2022-09-17T14:36:29;3.00;;;2.67;;
35330;SDS011;21441;52.190;20.910;2022-09-17T14:39:00;2.55;;;2.35;;
35330;SDS011;21441;52.190;20.910;2022-09-17T14:41:32;3.40;;;2.92;;
35330;SDS011;21441;52.190;20.910;2022-09-17T14:44:02;2.72;;;2.38;;
35330;SDS011;21441;52.190;20.910;2022-09-17T14:46:34;2.90;;;2.58;;
35330;SDS011;21441;52.190;20.910;2022-09-17T14:49:13;4.15;;;2.83;;
35330;SDS011;21441;52.190;20.910;2022-09-17T14:51:41;3.17;;;2.20;;
35330;SDS011;21441;52.190;20.910;2022-09-17T14:54:12;3.05;;;2.47;;
35330;SDS011;21441;52.190;20.910;2022-09-17T14:59:40;3.17;;;2.78;;
35330;SDS011;21441;52.190;20.910;2022-09-17T15:02:22;3.75;;;3.30;;
35330;SDS011;21441;52.190;20.910;2022-09-17T15:04:54;3.88;;;3.50;;
35330;SDS011;21441;52.190;20.910;2022-09-17T15:07:22;3.38;;;3.00;;
35330;SDS011;21441;52.190;20.910;2022-09-17T15:09:49;3.20;;;2.83;;
35330;SDS011;21441;52.190;20.910;2022-09-17T15:12:22;4.13;;;2.83;;
35330;SDS011;21441;52.190;20.910;2022-09-17T15:14:55;12.07;;;8.75;;
35330;SDS011;21441;52.190;20.910;2022-09-17T15:17:23;4.70;;;3.45;;
35330;SDS011;21441;52.190;20.910;2022-09-17T15:19:50;2.92;;;2.60;;
35330;SDS011;21441;52.190;20.910;2022-09-17T15:22:23;5.03;;;3.25;;
35330;SDS011;21441;52.190;20.910;2022-09-17T15:24:55;4.28;;;3.10;;
35330;SDS011;21441;52.190;20.910;2022-09-17T15:27:25;4.68;;;3.88;;
35330;SDS011;21441;52.190;20.910;2022-09-17T15:29:55;13.60;;;9.63;;
35330;SDS011;21441;52.190;20.910;2022-09-17T15:32:27;5.05;;;3.30;;
35330;SDS011;21441;52.190;20.910;2022-09-17T15:37:46;4.93;;;3.25;;
35330;SDS011;21441;52.190;20.910;2022-09-17T15:40:21;4.10;;;3.70;;
35330;SDS011;21441;52.190;20.910;2022-09-17T15:42:54;4.22;;;3.83;;
35330;SDS011;21441;52.190;20.910;2022-09-17T15:45:28;4.72;;;4.18;;
35330;SDS011;21441;52.190;20.910;2022-09-17T15:47:58;4.60;;;4.07;;
35330;SDS011;21441;52.190;20.910;2022-09-17T15:50:26;4.80;;;3.80;;
35330;SDS011;21441;52.190;20.910;2022-09-17T15:53:10;4.68;;;4.22;;
35330;SDS011;21441;52.190;20.910;2022-09-17T15:55:56;4.40;;;4.00;;
35330;SDS011;21441;52.190;20.910;2022-09-17T15:58:27;6.18;;;4.57;;
35330;SDS011;21441;52.190;20.910;2022-09-17T16:04:07;4.97;;;4.38;;
35330;SDS011;21441;52.190;20.910;2022-09-17T16:06:46;5.43;;;4.50;;
35330;SDS011;21441;52.190;20.910;2022-09-17T16:12:20;6.50;;;4.85;;
35330;SDS011;21441;52.190;20.910;2022-09-17T16:14:50;6.78;;;4.93;;
35330;SDS011;21441;52.190;20.910;2022-09-17T16:20:12;4.75;;;4.15;;
35330;SDS011;21441;52.190;20.910;2022-09-17T16:22:41;6.80;;;5.07;;
35330;SDS011;21441;52.190;20.910;2022-09-17T16:25:09;6.38;;;5.25;;
35330;SDS011;21441;52.190;20.910;2022-09-17T16:27:39;6.88;;;5.38;;
35330;SDS011;21441;52.190;20.910;2022-09-17T16:30:14;8.90;;;5.82;;
35330;SDS011;21441;52.190;20.910;2022-09-17T16:32:42;6.85;;;6.15;;
35330;SDS011;21441;52.190;20.910;2022-09-17T16:35:10;7.28;;;6.28;;
35330;SDS011;21441;52.190;20.910;2022-09-17T16:37:39;8.93;;;6.10;;
35330;SDS011;21441;52.190;20.910;2022-09-17T16:40:07;8.07;;;6.55;;
35330;SDS011;21441;52.190;20.910;2022-09-17T16:42:35;6.70;;;5.78;;
35330;SDS011;21441;52.190;20.910;2022-09-17T16:45:02;7.03;;;6.20;;
35330;SDS011;21441;52.190;20.910;2022-09-17T16:47:33;7.22;;;6.47;;
35330;SDS011;21441;52.190;20.910;2022-09-17T16:50:02;9.10;;;7.22;;
35330;SDS011;21441;52.190;20.910;2022-09-17T16:52:31;9.30;;;7.18;;
35330;SDS011;21441;52.190;20.910;2022-09-17T16:54:57;10.52;;;8.30;;
35330;SDS011;21441;52.190;20.910;2022-09-17T16:57:24;15.07;;;9.68;;
35330;SDS011;21441;52.190;20.910;2022-09-17T16:59:52;11.40;;;8.55;;
35330;SDS011;21441;52.190;20.910;2022-09-17T17:02:19;10.85;;;8.02;;
35330;SDS011;21441;52.190;20.910;2022-09-17T17:04:47;13.02;;;7.97;;
35330;SDS011;21441;52.190;20.910;2022-09-17T17:07:14;11.65;;;7.18;;
35330;SDS011;21441;52.190;20.910;2022-09-17T17:09:41;9.73;;;7.60;;
35330;SDS011;21441;52.190;20.910;2022-09-17T17:12:08;9.13;;;7.32;;
35330;SDS011;21441;52.190;20.910;2022-09-17T17:14:36;10.07;;;7.20;;
35330;SDS011;21441;52.190;20.910;2022-09-17T17:17:03;9.60;;;7.43;;
35330;SDS011;21441;52.190;20.910;2022-09-17T17:19:29;9.93;;;7.00;;
35330;SDS011;21441;52.190;20.910;2022-09-17T17:21:58;7.85;;;7.00;;
35330;SDS011;21441;52.190;20.910;2022-09-17T17:24:25;8.88;;;7.97;;
35330;SDS011;21441;52.190;20.910;2022-09-17T17:26:52;11.43;;;7.68;;
35330;SDS011;21441;52.190;20.910;2022-09-17T17:29:19;9.93;;;7.82;;
35330;SDS011;21441;52.190;20.910;2022-09-17T17:31:46;11.43;;;7.30;;
35330;SDS011;21441;52.190;20.910;2022-09-17T17:34:13;11.00;;;7.88;;
35330;SDS011;21441;52.190;20.910;2022-09-17T17:36:40;9.60;;;8.13;;
35330;SDS011;21441;52.190;20.910;2022-09-17T17:39:09;11.95;;;8.23;;
35330;SDS011;21441;52.190;20.910;2022-09-17T17:41:35;11.23;;;8.93;;
35330;SDS011;21441;52.190;20.910;2022-09-17T17:44:03;13.13;;;9.43;;
35330;SDS011;21441;52.190;20.910;2022-09-17T17:46:29;13.95;;;9.85;;
35330;SDS011;21441;52.190;20.910;2022-09-17T17:48:56;17.25;;;10.77;;
35330;SDS011;21441;52.190;20.910;2022-09-17T17:51:23;20.42;;;12.82;;
35330;SDS011;21441;52.190;20.910;2022-09-17T17:53:51;19.08;;;11.50;;
35330;SDS011;21441;52.190;20.910;2022-09-17T17:56:19;16.30;;;11.75;;